sensor_id;sensor_type;location;lat;lon;timestamp;temperature;humidity
13606;DHT22;6874;52.084;5.090;2023-08-06T00:02:21;16.40;99.90
13606;DHT22;6874;52.084;5.090;2023-08-06T00:04:47;16.40;99.90
13606;DHT22;6874;52.084;5.090;2023-08-06T00:07:12;16.40;99.90
13606;DHT22;6874;52.084;5.090;2023-08-06T00:09:38;16.40;99.90
13606;DHT22;6874;52.084;5.090;2023-08-06T00:12:04;16.40;99.90
13606;DHT22;6874;52.084;5.090;2023-08-06T00:14:29;16.40;99.90
13606;DHT22;6874;52.084;5.090;2023-08-06T00:16:55;16.50;99.90
13606;DHT22;6874;52.084;5.090;2023-08-06T00:19:21;16.40;99.90
13606;DHT22;6874;52.084;5.090;2023-08-06T00:21:46;16.40;99.90
13606;DHT22;6874;52.084;5.090;2023-08-06T00:24:12;16.40;99.90
13606;DHT22;6874;52.084;5.090;2023-08-06T00:26:37;16.40;99.90
13606;DHT22;6874;52.084;5.090;2023-08-06T00:29:03;16.40;99.90
13606;DHT22;6874;52.084;5.090;2023-08-06T00:31:28;16.40;99.90
13606;DHT22;6874;52.084;5.090;2023-08-06T00:33:54;16.30;99.90
13606;DHT22;6874;52.084;5.090;2023-08-06T00:36:20;16.30;99.90
13606;DHT22;6874;52.084;5.090;2023-08-06T00:38:45;16.40;99.90
13606;DHT22;6874;52.084;5.090;2023-08-06T00:41:11;16.30;99.90
13606;DHT22;6874;52.084;5.090;2023-08-06T00:43:36;16.30;99.90
13606;DHT22;6874;52.084;5.090;2023-08-06T00:46:02;16.30;99.90
13606;DHT22;6874;52.084;5.090;2023-08-06T00:48:28;16.30;99.90
13606;DHT22;6874;52.084;5.090;2023-08-06T00:50:53;16.30;99.90
13606;DHT22;6874;52.084;5.090;2023-08-06T00:53:19;16.30;99.90
13606;DHT22;6874;52.084;5.090;2023-08-06T00:55:45;16.30;99.90
13606;DHT22;6874;52.084;5.090;2023-08-06T00:58:12;16.30;99.90
13606;DHT22;6874;52.084;5.090;2023-08-06T01:00:38;16.30;99.90
13606;DHT22;6874;52.084;5.090;2023-08-06T01:03:04;16.30;99.90
13606;DHT22;6874;52.084;5.090;2023-08-06T01:05:30;16.40;99.90
13606;DHT22;6874;52.084;5.090;2023-08-06T01:13:16;16.30;99.90
13606;DHT22;6874;52.084;5.090;2023-08-06T01:15:49;16.30;99.90
13606;DHT22;6874;52.084;5.090;2023-08-06T01:18:15;16.30;99.90
13606;DHT22;6874;52.084;5.090;2023-08-06T01:20:41;16.30;99.90
13606;DHT22;6874;52.084;5.090;2023-08-06T01:23:07;16.30;99.90
13606;DHT22;6874;52.084;5.090;2023-08-06T01:25:47;16.30;99.90
13606;DHT22;6874;52.084;5.090;2023-08-06T01:31:36;16.30;99.90
13606;DHT22;6874;52.084;5.090;2023-08-06T01:34:05;16.30;99.90
13606;DHT22;6874;52.084;5.090;2023-08-06T01:36:31;16.30;99.90
13606;DHT22;6874;52.084;5.090;2023-08-06T01:38:57;16.30;99.90
13606;DHT22;6874;52.084;5.090;2023-08-06T01:41:23;16.30;99.90
13606;DHT22;6874;52.084;5.090;2023-08-06T01:43:48;16.20;99.90
13606;DHT22;6874;52.084;5.090;2023-08-06T01:46:14;16.30;99.90
13606;DHT22;6874;52.084;5.090;2023-08-06T01:48:40;16.20;99.90
13606;DHT22;6874;52.084;5.090;2023-08-06T01:51:06;16.20;99.90
13606;DHT22;6874;52.084;5.090;2023-08-06T01:53:32;16.20;99.90
13606;DHT22;6874;52.084;5.090;2023-08-06T01:55:58;16.20;99.90
13606;DHT22;6874;52.084;5.090;2023-08-06T01:58:23;16.20;99.90
13606;DHT22;6874;52.084;5.090;2023-08-06T02:00:49;16.20;99.90
13606;DHT22;6874;52.084;5.090;2023-08-06T02:03:15;16.20;99.90
13606;DHT22;6874;52.084;5.090;2023-08-06T02:05:41;16.20;99.90
13606;DHT22;6874;52.084;5.090;2023-08-06T02:08:06;16.30;99.90
13606;DHT22;6874;52.084;5.090;2023-08-06T02:10:32;16.30;99.90
13606;DHT22;6874;52.084;5.090;2023-08-06T02:12:58;16.20;99.90
13606;DHT22;6874;52.084;5.090;2023-08-06T02:15:23;16.20;99.90
13606;DHT22;6874;52.084;5.090;2023-08-06T02:17:49;16.20;99.90
13606;DHT22;6874;52.084;5.090;2023-08-06T02:20:14;16.20;99.90
13606;DHT22;6874;52.084;5.090;2023-08-06T02:22:40;16.10;99.90
13606;DHT22;6874;52.084;5.090;2023-08-06T02:25:06;16.20;99.90
13606;DHT22;6874;52.084;5.090;2023-08-06T02:27:31;16.20;99.90
13606;DHT22;6874;52.084;5.090;2023-08-06T02:29:57;16.10;99.90
13606;DHT22;6874;52.084;5.090;2023-08-06T02:32:22;16.10;99.90
13606;DHT22;6874;52.084;5.090;2023-08-06T02:34:48;16.10;99.90
13606;DHT22;6874;52.084;5.090;2023-08-06T02:37:13;16.20;99.90
13606;DHT22;6874;52.084;5.090;2023-08-06T02:39:39;16.10;99.90
13606;DHT22;6874;52.084;5.090;2023-08-06T02:42:08;16.10;99.90
13606;DHT22;6874;52.084;5.090;2023-08-06T02:44:35;16.10;99.90
13606;DHT22;6874;52.084;5.090;2023-08-06T02:47:01;16.10;99.90
13606;DHT22;6874;52.084;5.090;2023-08-06T02:49:26;16.10;99.90
13606;DHT22;6874;52.084;5.090;2023-08-06T02:51:52;16.10;99.90
13606;DHT22;6874;52.084;5.090;2023-08-06T02:54:20;16.10;99.90
13606;DHT22;6874;52.084;5.090;2023-08-06T02:56:46;16.10;99.90
13606;DHT22;6874;52.084;5.090;2023-08-06T02:59:12;16.10;99.90
13606;DHT22;6874;52.084;5.090;2023-08-06T03:01:38;16.10;99.90
13606;DHT22;6874;52.084;5.090;2023-08-06T03:04:04;16.10;99.90
13606;DHT22;6874;52.084;5.090;2023-08-06T03:06:29;16.10;99.90
13606;DHT22;6874;52.084;5.090;2023-08-06T03:08:55;16.10;99.90
13606;DHT22;6874;52.084;5.090;2023-08-06T03:11:20;16.10;99.90
13606;DHT22;6874;52.084;5.090;2023-08-06T03:13:47;16.10;99.90
13606;DHT22;6874;52.084;5.090;2023-08-06T03:16:12;16.10;99.90
13606;DHT22;6874;52.084;5.090;2023-08-06T03:18:38;16.10;99.90
13606;DHT22;6874;52.084;5.090;2023-08-06T03:21:04;16.10;99.90
13606;DHT22;6874;52.084;5.090;2023-08-06T03:23:29;16.10;99.90
13606;DHT22;6874;52.084;5.090;2023-08-06T03:25:55;16.10;99.90
13606;DHT22;6874;52.084;5.090;2023-08-06T03:28:20;16.10;99.90
13606;DHT22;6874;52.084;5.090;2023-08-06T03:30:47;16.10;99.90
13606;DHT22;6874;52.084;5.090;2023-08-06T03:33:13;16.10;99.90
13606;DHT22;6874;52.084;5.090;2023-08-06T03:35:39;16.10;99.90
13606;DHT22;6874;52.084;5.090;2023-08-06T03:38:05;16.10;99.90
13606;DHT22;6874;52.084;5.090;2023-08-06T03:40:31;16.10;99.90
13606;DHT22;6874;52.084;5.090;2023-08-06T03:42:56;16.10;99.90
13606;DHT22;6874;52.084;5.090;2023-08-06T03:45:22;16.00;99.90
13606;DHT22;6874;52.084;5.090;2023-08-06T03:47:47;16.10;99.90
13606;DHT22;6874;52.084;5.090;2023-08-06T03:50:13;16.00;99.90
13606;DHT22;6874;52.084;5.090;2023-08-06T03:52:39;16.00;99.90
13606;DHT22;6874;52.084;5.090;2023-08-06T03:55:04;16.00;99.90
13606;DHT22;6874;52.084;5.090;2023-08-06T03:57:30;16.00;99.90
13606;DHT22;6874;52.084;5.090;2023-08-06T03:59:56;16.00;99.90
13606;DHT22;6874;52.084;5.090;2023-08-06T04:02:21;16.00;99.90
13606;DHT22;6874;52.084;5.090;2023-08-06T04:04:47;16.00;99.90
13606;DHT22;6874;52.084;5.090;2023-08-06T04:07:13;16.00;99.90
13606;DHT22;6874;52.084;5.090;2023-08-06T04:09:58;16.00;99.90
13606;DHT22;6874;52.084;5.090;2023-08-06T04:12:24;16.00;99.90
13606;DHT22;6874;52.084;5.090;2023-08-06T04:14:51;16.00;99.90
13606;DHT22;6874;52.084;5.090;2023-08-06T04:17:17;16.00;99.90
13606;DHT22;6874;52.084;5.090;2023-08-06T04:19:49;16.00;99.90
13606;DHT22;6874;52.084;5.090;2023-08-06T04:22:15;16.00;99.90
13606;DHT22;6874;52.084;5.090;2023-08-06T04:24:41;16.00;99.90
13606;DHT22;6874;52.084;5.090;2023-08-06T04:27:08;16.00;99.90
13606;DHT22;6874;52.084;5.090;2023-08-06T04:29:34;16.00;99.90
13606;DHT22;6874;52.084;5.090;2023-08-06T04:32:00;16.00;99.90
13606;DHT22;6874;52.084;5.090;2023-08-06T04:34:25;16.00;99.90
13606;DHT22;6874;52.084;5.090;2023-08-06T04:36:51;16.00;99.90
13606;DHT22;6874;52.084;5.090;2023-08-06T04:39:16;16.00;99.90
13606;DHT22;6874;52.084;5.090;2023-08-06T04:41:42;16.00;99.90
13606;DHT22;6874;52.084;5.090;2023-08-06T04:44:07;16.00;99.90
13606;DHT22;6874;52.084;5.090;2023-08-06T04:46:33;16.00;99.90
13606;DHT22;6874;52.084;5.090;2023-08-06T04:48:58;16.00;99.90
13606;DHT22;6874;52.084;5.090;2023-08-06T04:51:24;16.00;99.90
13606;DHT22;6874;52.084;5.090;2023-08-06T04:53:50;16.00;99.90
13606;DHT22;6874;52.084;5.090;2023-08-06T04:56:15;15.90;99.90
13606;DHT22;6874;52.084;5.090;2023-08-06T04:58:41;16.00;99.90
13606;DHT22;6874;52.084;5.090;2023-08-06T05:01:06;16.00;99.90
13606;DHT22;6874;52.084;5.090;2023-08-06T05:03:32;15.90;99.90
13606;DHT22;6874;52.084;5.090;2023-08-06T05:05:58;16.00;99.90
13606;DHT22;6874;52.084;5.090;2023-08-06T05:08:23;16.00;99.90
13606;DHT22;6874;52.084;5.090;2023-08-06T05:10:49;16.00;99.90
13606;DHT22;6874;52.084;5.090;2023-08-06T05:13:14;15.90;99.90
13606;DHT22;6874;52.084;5.090;2023-08-06T05:15:41;15.90;99.90
13606;DHT22;6874;52.084;5.090;2023-08-06T05:18:08;15.90;99.90
13606;DHT22;6874;52.084;5.090;2023-08-06T05:20:38;15.90;99.90
13606;DHT22;6874;52.084;5.090;2023-08-06T05:23:04;15.90;99.90
13606;DHT22;6874;52.084;5.090;2023-08-06T05:25:30;15.90;99.90
13606;DHT22;6874;52.084;5.090;2023-08-06T05:27:55;15.90;99.90
13606;DHT22;6874;52.084;5.090;2023-08-06T05:30:21;15.90;99.90
13606;DHT22;6874;52.084;5.090;2023-08-06T05:32:46;15.90;99.90
13606;DHT22;6874;52.084;5.090;2023-08-06T05:35:12;15.90;99.90
13606;DHT22;6874;52.084;5.090;2023-08-06T05:37:38;15.90;99.90
13606;DHT22;6874;52.084;5.090;2023-08-06T05:40:03;15.90;99.90
13606;DHT22;6874;52.084;5.090;2023-08-06T05:42:30;15.90;99.90
13606;DHT22;6874;52.084;5.090;2023-08-06T05:44:55;15.90;99.90
13606;DHT22;6874;52.084;5.090;2023-08-06T05:47:21;15.90;99.90
13606;DHT22;6874;52.084;5.090;2023-08-06T05:49:47;15.80;99.90
13606;DHT22;6874;52.084;5.090;2023-08-06T05:52:12;15.80;99.90
13606;DHT22;6874;52.084;5.090;2023-08-06T05:54:38;15.80;99.90
13606;DHT22;6874;52.084;5.090;2023-08-06T05:57:04;15.80;99.90
13606;DHT22;6874;52.084;5.090;2023-08-06T05:59:29;15.80;99.90
13606;DHT22;6874;52.084;5.090;2023-08-06T06:01:55;15.90;99.90
13606;DHT22;6874;52.084;5.090;2023-08-06T06:04:21;15.80;99.90
13606;DHT22;6874;52.084;5.090;2023-08-06T06:06:47;15.80;99.90
13606;DHT22;6874;52.084;5.090;2023-08-06T06:09:13;15.80;99.90
13606;DHT22;6874;52.084;5.090;2023-08-06T06:11:38;15.80;99.90
13606;DHT22;6874;52.084;5.090;2023-08-06T06:14:04;15.80;99.90
13606;DHT22;6874;52.084;5.090;2023-08-06T06:16:30;15.80;99.90
13606;DHT22;6874;52.084;5.090;2023-08-06T06:18:55;15.80;99.90
13606;DHT22;6874;52.084;5.090;2023-08-06T06:21:23;15.80;99.90
13606;DHT22;6874;52.084;5.090;2023-08-06T06:23:49;15.80;99.90
13606;DHT22;6874;52.084;5.090;2023-08-06T06:26:17;15.80;99.90
13606;DHT22;6874;52.084;5.090;2023-08-06T06:28:42;15.80;99.90
13606;DHT22;6874;52.084;5.090;2023-08-06T06:31:08;15.80;99.90
13606;DHT22;6874;52.084;5.090;2023-08-06T06:33:34;15.70;99.90
13606;DHT22;6874;52.084;5.090;2023-08-06T06:36:00;15.70;99.90
13606;DHT22;6874;52.084;5.090;2023-08-06T06:38:26;15.70;99.90
13606;DHT22;6874;52.084;5.090;2023-08-06T06:40:55;15.70;99.90
13606;DHT22;6874;52.084;5.090;2023-08-06T06:43:21;15.70;99.90
13606;DHT22;6874;52.084;5.090;2023-08-06T06:45:47;15.70;99.90
13606;DHT22;6874;52.084;5.090;2023-08-06T06:48:12;15.70;99.90
13606;DHT22;6874;52.084;5.090;2023-08-06T06:50:38;15.70;99.90
13606;DHT22;6874;52.084;5.090;2023-08-06T06:53:04;15.70;99.90
13606;DHT22;6874;52.084;5.090;2023-08-06T06:55:30;15.70;99.90
13606;DHT22;6874;52.084;5.090;2023-08-06T06:57:56;15.70;99.90
13606;DHT22;6874;52.084;5.090;2023-08-06T07:00:21;15.70;99.90
13606;DHT22;6874;52.084;5.090;2023-08-06T07:02:47;15.70;99.90
13606;DHT22;6874;52.084;5.090;2023-08-06T07:05:12;15.70;99.90
13606;DHT22;6874;52.084;5.090;2023-08-06T07:07:38;15.70;99.90
13606;DHT22;6874;52.084;5.090;2023-08-06T07:10:04;15.70;99.90
13606;DHT22;6874;52.084;5.090;2023-08-06T07:12:31;15.70;99.90
13606;DHT22;6874;52.084;5.090;2023-08-06T07:14:56;15.70;99.90
13606;DHT22;6874;52.084;5.090;2023-08-06T07:17:22;15.70;99.90
13606;DHT22;6874;52.084;5.090;2023-08-06T07:19:47;15.70;99.90
13606;DHT22;6874;52.084;5.090;2023-08-06T07:22:13;15.70;99.90
13606;DHT22;6874;52.084;5.090;2023-08-06T07:24:38;15.80;99.90
13606;DHT22;6874;52.084;5.090;2023-08-06T07:27:04;15.70;99.90
13606;DHT22;6874;52.084;5.090;2023-08-06T07:29:30;15.70;99.90
13606;DHT22;6874;52.084;5.090;2023-08-06T07:31:55;15.80;99.90
13606;DHT22;6874;52.084;5.090;2023-08-06T07:34:21;15.80;99.90
13606;DHT22;6874;52.084;5.090;2023-08-06T07:36:47;15.70;99.90
13606;DHT22;6874;52.084;5.090;2023-08-06T07:39:12;15.80;99.90
13606;DHT22;6874;52.084;5.090;2023-08-06T07:41:38;15.80;99.90
13606;DHT22;6874;52.084;5.090;2023-08-06T07:44:04;15.80;99.90
13606;DHT22;6874;52.084;5.090;2023-08-06T07:46:30;15.80;99.90
13606;DHT22;6874;52.084;5.090;2023-08-06T07:48:55;15.70;99.90
13606;DHT22;6874;52.084;5.090;2023-08-06T07:51:21;15.80;99.90
13606;DHT22;6874;52.084;5.090;2023-08-06T07:53:46;15.80;99.90
13606;DHT22;6874;52.084;5.090;2023-08-06T07:56:12;15.80;99.90
13606;DHT22;6874;52.084;5.090;2023-08-06T07:58:38;15.80;99.90
13606;DHT22;6874;52.084;5.090;2023-08-06T08:01:03;15.80;99.90
13606;DHT22;6874;52.084;5.090;2023-08-06T08:03:29;15.80;99.90
13606;DHT22;6874;52.084;5.090;2023-08-06T08:05:55;15.80;99.90
13606;DHT22;6874;52.084;5.090;2023-08-06T08:08:24;15.80;99.90
13606;DHT22;6874;52.084;5.090;2023-08-06T08:10:50;15.80;99.90
13606;DHT22;6874;52.084;5.090;2023-08-06T08:13:15;15.80;99.90
13606;DHT22;6874;52.084;5.090;2023-08-06T08:15:41;15.80;99.90
13606;DHT22;6874;52.084;5.090;2023-08-06T08:18:07;15.90;99.90
13606;DHT22;6874;52.084;5.090;2023-08-06T08:20:33;15.90;99.90
13606;DHT22;6874;52.084;5.090;2023-08-06T08:23:00;15.90;99.90
13606;DHT22;6874;52.084;5.090;2023-08-06T08:25:27;15.90;99.90
13606;DHT22;6874;52.084;5.090;2023-08-06T08:27:53;16.00;99.90
13606;DHT22;6874;52.084;5.090;2023-08-06T08:30:19;16.00;99.90
13606;DHT22;6874;52.084;5.090;2023-08-06T08:32:44;16.00;99.90
13606;DHT22;6874;52.084;5.090;2023-08-06T08:35:10;16.00;99.90
13606;DHT22;6874;52.084;5.090;2023-08-06T08:37:40;16.00;99.90
13606;DHT22;6874;52.084;5.090;2023-08-06T08:40:06;16.00;99.90
13606;DHT22;6874;52.084;5.090;2023-08-06T08:42:33;16.00;99.90
13606;DHT22;6874;52.084;5.090;2023-08-06T08:44:58;16.10;99.90
13606;DHT22;6874;52.084;5.090;2023-08-06T08:47:24;16.10;99.90
13606;DHT22;6874;52.084;5.090;2023-08-06T08:49:53;16.10;99.90
13606;DHT22;6874;52.084;5.090;2023-08-06T08:52:21;16.10;99.90
13606;DHT22;6874;52.084;5.090;2023-08-06T08:54:47;16.10;99.90
13606;DHT22;6874;52.084;5.090;2023-08-06T08:57:17;16.10;99.90
13606;DHT22;6874;52.084;5.090;2023-08-06T08:59:42;16.00;99.90
13606;DHT22;6874;52.084;5.090;2023-08-06T09:02:11;16.10;99.90
13606;DHT22;6874;52.084;5.090;2023-08-06T09:04:39;16.10;99.90
13606;DHT22;6874;52.084;5.090;2023-08-06T09:07:05;16.10;99.90
13606;DHT22;6874;52.084;5.090;2023-08-06T09:09:34;16.10;99.90
13606;DHT22;6874;52.084;5.090;2023-08-06T09:12:09;16.10;99.90
13606;DHT22;6874;52.084;5.090;2023-08-06T09:14:36;16.10;99.90
13606;DHT22;6874;52.084;5.090;2023-08-06T09:17:02;16.10;99.90
13606;DHT22;6874;52.084;5.090;2023-08-06T09:19:27;16.10;99.90
13606;DHT22;6874;52.084;5.090;2023-08-06T09:21:55;16.10;99.90
13606;DHT22;6874;52.084;5.090;2023-08-06T09:24:21;16.10;99.90
13606;DHT22;6874;52.084;5.090;2023-08-06T09:26:47;16.10;99.90
13606;DHT22;6874;52.084;5.090;2023-08-06T09:29:13;16.10;99.90
13606;DHT22;6874;52.084;5.090;2023-08-06T09:31:44;16.10;99.90
13606;DHT22;6874;52.084;5.090;2023-08-06T09:34:21;16.10;99.90
13606;DHT22;6874;52.084;5.090;2023-08-06T09:36:54;16.10;99.90
13606;DHT22;6874;52.084;5.090;2023-08-06T09:39:22;16.10;99.90
13606;DHT22;6874;52.084;5.090;2023-08-06T09:41:48;16.10;99.90
13606;DHT22;6874;52.084;5.090;2023-08-06T09:44:19;16.10;99.90
13606;DHT22;6874;52.084;5.090;2023-08-06T09:46:49;16.10;99.90
13606;DHT22;6874;52.084;5.090;2023-08-06T09:49:19;16.10;99.90
13606;DHT22;6874;52.084;5.090;2023-08-06T09:51:45;16.10;99.90
13606;DHT22;6874;52.084;5.090;2023-08-06T09:54:15;16.10;99.90
13606;DHT22;6874;52.084;5.090;2023-08-06T09:56:42;16.10;99.90
13606;DHT22;6874;52.084;5.090;2023-08-06T09:59:08;16.10;99.90
13606;DHT22;6874;52.084;5.090;2023-08-06T10:01:35;16.10;99.90
13606;DHT22;6874;52.084;5.090;2023-08-06T10:04:03;16.10;99.90
13606;DHT22;6874;52.084;5.090;2023-08-06T10:06:28;16.10;99.90
13606;DHT22;6874;52.084;5.090;2023-08-06T10:08:55;16.10;99.90
13606;DHT22;6874;52.084;5.090;2023-08-06T10:11:24;16.10;99.90
13606;DHT22;6874;52.084;5.090;2023-08-06T10:13:57;16.10;99.90
13606;DHT22;6874;52.084;5.090;2023-08-06T10:16:24;16.10;99.90
13606;DHT22;6874;52.084;5.090;2023-08-06T10:18:50;16.10;99.90
13606;DHT22;6874;52.084;5.090;2023-08-06T10:21:17;16.10;99.90
13606;DHT22;6874;52.084;5.090;2023-08-06T10:23:42;16.20;99.90
13606;DHT22;6874;52.084;5.090;2023-08-06T10:26:08;16.20;99.90
13606;DHT22;6874;52.084;5.090;2023-08-06T10:28:35;16.10;99.90
13606;DHT22;6874;52.084;5.090;2023-08-06T10:31:02;16.20;99.90
13606;DHT22;6874;52.084;5.090;2023-08-06T10:33:44;16.20;99.90
13606;DHT22;6874;52.084;5.090;2023-08-06T10:36:10;16.20;99.90
13606;DHT22;6874;52.084;5.090;2023-08-06T10:38:47;16.20;99.90
13606;DHT22;6874;52.084;5.090;2023-08-06T10:43:42;16.30;99.90
13606;DHT22;6874;52.084;5.090;2023-08-06T10:46:11;16.30;99.90
13606;DHT22;6874;52.084;5.090;2023-08-06T10:48:45;16.30;99.90
13606;DHT22;6874;52.084;5.090;2023-08-06T10:51:13;16.40;99.90
13606;DHT22;6874;52.084;5.090;2023-08-06T10:53:44;16.40;99.90
13606;DHT22;6874;52.084;5.090;2023-08-06T10:56:23;16.40;99.90
13606;DHT22;6874;52.084;5.090;2023-08-06T10:58:50;16.40;99.90
13606;DHT22;6874;52.084;5.090;2023-08-06T11:01:17;16.40;99.90
13606;DHT22;6874;52.084;5.090;2023-08-06T11:03:45;16.50;99.90
13606;DHT22;6874;52.084;5.090;2023-08-06T11:06:17;16.50;99.90
13606;DHT22;6874;52.084;5.090;2023-08-06T11:08:48;16.50;99.90
13606;DHT22;6874;52.084;5.090;2023-08-06T11:11:14;16.50;99.90
13606;DHT22;6874;52.084;5.090;2023-08-06T11:13:45;16.50;99.90
13606;DHT22;6874;52.084;5.090;2023-08-06T11:16:16;16.50;99.90
13606;DHT22;6874;52.084;5.090;2023-08-06T11:18:42;16.50;99.90
13606;DHT22;6874;52.084;5.090;2023-08-06T11:21:08;16.50;99.90
13606;DHT22;6874;52.084;5.090;2023-08-06T11:23:34;16.50;99.90
13606;DHT22;6874;52.084;5.090;2023-08-06T11:26:00;16.60;99.90
13606;DHT22;6874;52.084;5.090;2023-08-06T11:28:26;16.50;99.90
13606;DHT22;6874;52.084;5.090;2023-08-06T11:30:52;16.50;99.90
13606;DHT22;6874;52.084;5.090;2023-08-06T11:33:25;16.60;99.90
13606;DHT22;6874;52.084;5.090;2023-08-06T11:35:54;16.50;99.90
13606;DHT22;6874;52.084;5.090;2023-08-06T11:38:20;16.50;99.90
13606;DHT22;6874;52.084;5.090;2023-08-06T11:40:47;16.50;99.90
13606;DHT22;6874;52.084;5.090;2023-08-06T11:43:13;16.60;99.90
13606;DHT22;6874;52.084;5.090;2023-08-06T11:45:39;16.60;99.90
13606;DHT22;6874;52.084;5.090;2023-08-06T11:48:06;16.50;99.90
13606;DHT22;6874;52.084;5.090;2023-08-06T11:50:36;16.50;99.90
13606;DHT22;6874;52.084;5.090;2023-08-06T11:53:03;16.50;99.90
13606;DHT22;6874;52.084;5.090;2023-08-06T11:55:29;16.50;99.90
13606;DHT22;6874;52.084;5.090;2023-08-06T11:57:55;16.60;99.90
13606;DHT22;6874;52.084;5.090;2023-08-06T12:00:23;16.50;99.90
13606;DHT22;6874;52.084;5.090;2023-08-06T12:02:49;16.60;99.90
13606;DHT22;6874;52.084;5.090;2023-08-06T12:05:18;16.60;99.90
13606;DHT22;6874;52.084;5.090;2023-08-06T12:07:53;16.60;99.90
13606;DHT22;6874;52.084;5.090;2023-08-06T12:10:20;16.60;99.90
13606;DHT22;6874;52.084;5.090;2023-08-06T12:12:46;16.60;99.90
13606;DHT22;6874;52.084;5.090;2023-08-06T12:15:12;16.60;99.90
13606;DHT22;6874;52.084;5.090;2023-08-06T12:17:38;16.60;99.90
13606;DHT22;6874;52.084;5.090;2023-08-06T12:20:05;16.60;99.90
13606;DHT22;6874;52.084;5.090;2023-08-06T12:22:31;16.60;99.90
13606;DHT22;6874;52.084;5.090;2023-08-06T12:25:01;16.70;99.90
13606;DHT22;6874;52.084;5.090;2023-08-06T12:27:28;16.70;99.90
13606;DHT22;6874;52.084;5.090;2023-08-06T12:29:53;16.70;99.90
13606;DHT22;6874;52.084;5.090;2023-08-06T12:32:19;16.70;99.90
13606;DHT22;6874;52.084;5.090;2023-08-06T12:34:45;16.70;99.90
13606;DHT22;6874;52.084;5.090;2023-08-06T12:37:10;16.70;99.90
13606;DHT22;6874;52.084;5.090;2023-08-06T12:39:37;16.80;99.90
13606;DHT22;6874;52.084;5.090;2023-08-06T12:42:03;16.80;99.90
13606;DHT22;6874;52.084;5.090;2023-08-06T12:44:30;16.80;99.90
13606;DHT22;6874;52.084;5.090;2023-08-06T12:46:56;16.80;99.90
13606;DHT22;6874;52.084;5.090;2023-08-06T12:49:22;16.90;99.90
13606;DHT22;6874;52.084;5.090;2023-08-06T12:51:48;16.90;99.90
13606;DHT22;6874;52.084;5.090;2023-08-06T12:54:16;17.00;99.90
13606;DHT22;6874;52.084;5.090;2023-08-06T12:56:41;16.80;99.90
13606;DHT22;6874;52.084;5.090;2023-08-06T12:59:07;16.90;99.90
13606;DHT22;6874;52.084;5.090;2023-08-06T13:01:32;16.90;99.90
13606;DHT22;6874;52.084;5.090;2023-08-06T13:03:59;16.90;99.90
13606;DHT22;6874;52.084;5.090;2023-08-06T13:06:24;16.90;99.90
13606;DHT22;6874;52.084;5.090;2023-08-06T13:08:50;17.00;99.90
13606;DHT22;6874;52.084;5.090;2023-08-06T13:11:16;17.00;99.90
13606;DHT22;6874;52.084;5.090;2023-08-06T13:13:41;17.00;99.90
13606;DHT22;6874;52.084;5.090;2023-08-06T13:16:07;17.10;99.90
13606;DHT22;6874;52.084;5.090;2023-08-06T13:18:32;17.00;99.90
13606;DHT22;6874;52.084;5.090;2023-08-06T13:20:58;17.00;99.90
13606;DHT22;6874;52.084;5.090;2023-08-06T13:23:23;17.00;99.90
13606;DHT22;6874;52.084;5.090;2023-08-06T13:25:49;17.00;99.90
13606;DHT22;6874;52.084;5.090;2023-08-06T13:28:14;17.10;99.90
13606;DHT22;6874;52.084;5.090;2023-08-06T13:30:40;17.10;99.90
13606;DHT22;6874;52.084;5.090;2023-08-06T13:33:09;17.10;99.90
13606;DHT22;6874;52.084;5.090;2023-08-06T13:35:35;17.10;99.90
13606;DHT22;6874;52.084;5.090;2023-08-06T13:38:01;17.10;99.90
13606;DHT22;6874;52.084;5.090;2023-08-06T13:40:31;17.10;99.90
13606;DHT22;6874;52.084;5.090;2023-08-06T13:42:57;17.10;99.90
13606;DHT22;6874;52.084;5.090;2023-08-06T13:45:23;17.10;99.90
13606;DHT22;6874;52.084;5.090;2023-08-06T13:47:49;17.10;99.90
13606;DHT22;6874;52.084;5.090;2023-08-06T13:50:15;17.10;99.90
13606;DHT22;6874;52.084;5.090;2023-08-06T13:52:40;17.10;99.90
13606;DHT22;6874;52.084;5.090;2023-08-06T13:55:06;17.10;99.90
13606;DHT22;6874;52.084;5.090;2023-08-06T13:59:58;17.10;99.90
13606;DHT22;6874;52.084;5.090;2023-08-06T14:02:24;17.10;99.90
13606;DHT22;6874;52.084;5.090;2023-08-06T14:04:51;17.10;99.90
13606;DHT22;6874;52.084;5.090;2023-08-06T14:07:17;17.10;99.90
13606;DHT22;6874;52.084;5.090;2023-08-06T14:09:43;17.10;99.90
13606;DHT22;6874;52.084;5.090;2023-08-06T14:12:09;17.10;99.90
13606;DHT22;6874;52.084;5.090;2023-08-06T14:14:35;17.10;99.90
13606;DHT22;6874;52.084;5.090;2023-08-06T14:17:01;17.00;99.90
13606;DHT22;6874;52.084;5.090;2023-08-06T14:19:26;17.00;99.90
13606;DHT22;6874;52.084;5.090;2023-08-06T14:21:52;17.10;99.90
13606;DHT22;6874;52.084;5.090;2023-08-06T14:24:18;17.00;99.90
13606;DHT22;6874;52.084;5.090;2023-08-06T14:26:43;17.00;99.90
13606;DHT22;6874;52.084;5.090;2023-08-06T14:29:09;17.00;99.90
13606;DHT22;6874;52.084;5.090;2023-08-06T14:31:35;17.00;99.90
13606;DHT22;6874;52.084;5.090;2023-08-06T14:34:00;17.00;99.90
13606;DHT22;6874;52.084;5.090;2023-08-06T14:36:26;17.00;99.90
13606;DHT22;6874;52.084;5.090;2023-08-06T14:38:52;17.00;99.90
13606;DHT22;6874;52.084;5.090;2023-08-06T14:41:17;16.90;99.90
13606;DHT22;6874;52.084;5.090;2023-08-06T14:43:43;16.90;99.90
13606;DHT22;6874;52.084;5.090;2023-08-06T14:46:08;16.90;99.90
13606;DHT22;6874;52.084;5.090;2023-08-06T14:48:34;16.90;99.90
13606;DHT22;6874;52.084;5.090;2023-08-06T14:50:59;16.80;99.90
13606;DHT22;6874;52.084;5.090;2023-08-06T14:53:26;16.80;99.90
13606;DHT22;6874;52.084;5.090;2023-08-06T14:55:52;16.70;99.90
13606;DHT22;6874;52.084;5.090;2023-08-06T14:58:17;16.70;99.90
13606;DHT22;6874;52.084;5.090;2023-08-06T15:00:44;16.70;99.90
13606;DHT22;6874;52.084;5.090;2023-08-06T15:03:10;16.60;99.90
13606;DHT22;6874;52.084;5.090;2023-08-06T15:05:36;16.60;99.90
13606;DHT22;6874;52.084;5.090;2023-08-06T15:08:01;16.60;99.90
13606;DHT22;6874;52.084;5.090;2023-08-06T15:10:27;16.60;99.90
13606;DHT22;6874;52.084;5.090;2023-08-06T15:12:53;16.60;99.90
13606;DHT22;6874;52.084;5.090;2023-08-06T15:15:18;16.50;99.90
13606;DHT22;6874;52.084;5.090;2023-08-06T15:17:44;16.50;99.90
13606;DHT22;6874;52.084;5.090;2023-08-06T15:20:10;16.50;99.90
13606;DHT22;6874;52.084;5.090;2023-08-06T15:22:35;16.50;99.90
13606;DHT22;6874;52.084;5.090;2023-08-06T15:25:02;16.40;99.90
13606;DHT22;6874;52.084;5.090;2023-08-06T15:27:28;16.40;99.90
13606;DHT22;6874;52.084;5.090;2023-08-06T15:29:54;16.40;99.90
13606;DHT22;6874;52.084;5.090;2023-08-06T15:32:19;16.40;99.90
13606;DHT22;6874;52.084;5.090;2023-08-06T15:34:46;16.40;99.90
13606;DHT22;6874;52.084;5.090;2023-08-06T15:37:12;16.30;99.90
13606;DHT22;6874;52.084;5.090;2023-08-06T15:39:38;16.30;99.90
13606;DHT22;6874;52.084;5.090;2023-08-06T15:42:04;16.30;99.90
13606;DHT22;6874;52.084;5.090;2023-08-06T15:44:29;16.30;99.90
13606;DHT22;6874;52.084;5.090;2023-08-06T15:46:55;16.30;99.90
13606;DHT22;6874;52.084;5.090;2023-08-06T15:49:21;16.30;99.90
13606;DHT22;6874;52.084;5.090;2023-08-06T15:51:47;16.30;99.90
13606;DHT22;6874;52.084;5.090;2023-08-06T15:54:12;16.30;99.90